Time;durP1;ratioP1;P1;durP2;ratioP2;P2;SDS_P1;SDS_P2;PMS_P1;PMS_P2;Temp;Humidity;BMP_temperature;BMP_pressure;BME280_temperature;BME280_humidity;BME280_pressure;Samples;Min_cycle;Max_cycle;Signal;HPM_P1;HPM_P2
2024/02/26 00:02:10;;;;;;;;;;;;;;;-144.99;nan;52590.78;5023708;28;19929;-67
2024/02/26 00:04:38;;;;;;;;;;;;;;;-144.99;nan;52598.94;5026030;28;20023;-69
2024/02/26 00:07:04;;;;;;;;;;;;;;;-144.99;nan;52617.28;5019529;28;20139;-68
2024/02/26 00:09:31;;;;;;;;;;;;;;;-144.99;nan;52590.78;5018538;28;19991;-69
2024/02/26 00:11:57;;;;;;;;;;;;;;;-144.99;nan;52615.25;5023847;28;20679;-69
2024/02/26 00:14:24;;;;;;;;;;;;;;;-144.99;nan;52635.63;5016255;28;19930;-68
2024/02/26 00:16:50;;;;;;;;;;;;;;;-144.99;nan;52613.19;5028688;28;20023;-69
2024/02/26 00:19:17;;;;;;;;;;;;;;;-144.99;nan;52619.31;5018532;28;19996;-68
2024/02/26 00:21:45;;;;;;;;;;;;;;;-144.99;nan;52598.94;5027026;28;19991;-68
2024/02/26 00:24:11;;;;;;;;;;;;;;;-144.99;nan;52631.53;5030997;28;19930;-68
2024/02/26 00:26:38;;;;;;;;;;;;;;;-144.99;nan;52631.53;5024771;28;19983;-67
2024/02/26 00:29:04;;;;;;;;;;;;;;;-144.99;nan;52627.47;5017962;28;20012;-67
2024/02/26 00:31:31;;;;;;;;;;;;;;;-144.99;nan;52611.16;5027248;28;19935;-68
2024/02/26 00:33:57;;;;;;;;;;;;;;;-144.99;nan;52613.19;5017593;28;20372;-69
2024/02/26 00:36:24;;;;;;;;;;;;;;;-144.99;nan;52611.16;5023194;28;19975;-68
2024/02/26 00:38:51;;;;;;;;;;;;;;;-144.99;nan;52674.34;5023815;28;20031;-68
2024/02/26 00:41:18;;;;;;;;;;;;;;;-144.99;nan;52574.47;5021382;28;20019;-68
2024/02/26 00:43:45;;;;;;;;;;;;;;;-144.99;nan;52615.25;5020369;28;19928;-68
2024/02/26 00:46:11;;;;;;;;;;;;;;;-144.99;nan;52611.16;5020633;28;19976;-68
2024/02/26 00:48:38;;;;;;;;;;;;;;;-144.99;nan;52611.16;5031089;28;20067;-68
2024/02/26 00:51:05;;;;;;;;;;;;;;;-144.99;nan;52603.00;5021849;28;19935;-68
2024/02/26 00:53:32;;;;;;;;;;;;;;;-144.99;nan;52623.38;5021965;28;19929;-69
2024/02/26 00:55:59;;;;;;;;;;;;;;;-144.99;nan;52619.31;5018608;28;19930;-71
2024/02/26 00:58:26;;;;;;;;;;;;;;;-144.99;nan;52619.31;5018757;28;20004;-72
2024/02/26 01:00:52;;;;;;;;;;;;;;;-144.99;nan;52603.00;5030398;28;19936;-72
2024/02/26 01:03:19;;;;;;;;;;;;;;;-144.99;nan;52639.69;5024047;28;20017;-71
2024/02/26 01:05:46;;;;;;;;;;;;;;;-144.99;nan;52625.44;5017526;28;19933;-71
2024/02/26 01:08:12;;;;;;;;;;;;;;;-144.99;nan;52570.38;5016755;28;19976;-72
2024/02/26 01:10:39;;;;;;;;;;;;;;;-144.99;nan;52607.09;5018127;28;19980;-72
2024/02/26 01:13:07;;;;;;;;;;;;;;;-144.99;nan;52619.31;5020634;28;20019;-71
2024/02/26 01:15:34;;;;;;;;;;;;;;;-144.99;nan;52619.31;5017429;28;20019;-71
2024/02/26 01:18:00;;;;;;;;;;;;;;;-144.99;nan;52633.59;5025646;28;19932;-68
2024/02/26 01:20:27;;;;;;;;;;;;;;;-144.99;nan;52631.53;5027220;28;20018;-68
2024/02/26 01:22:53;;;;;;;;;;;;;;;-144.99;nan;52682.50;5021307;28;20060;-68
2024/02/26 01:25:19;;;;;;;;;;;;;;;-144.99;nan;52627.47;5024316;28;20464;-68
2024/02/26 01:27:46;;;;;;;;;;;;;;;-144.99;nan;52607.09;5028227;28;20372;-67
2024/02/26 01:30:16;;;;;;;;;;;;;;;-144.99;nan;52594.84;5026843;28;19982;-67
2024/02/26 01:32:42;;;;;;;;;;;;;;;-144.99;nan;52635.63;5025102;28;19937;-68
2024/02/26 01:35:11;;;;;;;;;;;;;;;-144.99;nan;52609.13;5017576;28;19953;-68
2024/02/26 01:37:38;;;;;;;;;;;;;;;-144.99;nan;52658.03;5019668;28;19929;-67
2024/02/26 01:40:06;;;;;;;;;;;;;;;-144.99;nan;52619.31;5011902;28;20321;-68
2024/02/26 01:42:33;;;;;;;;;;;;;;;-144.99;nan;52627.47;5021604;28;19933;-66
2024/02/26 01:44:59;;;;;;;;;;;;;;;-144.99;nan;52603.00;5020709;28;20112;-66
2024/02/26 01:47:28;;;;;;;;;;;;;;;-144.99;nan;52631.53;5026983;28;19980;-66
2024/02/26 01:49:55;;;;;;;;;;;;;;;-144.99;nan;52590.78;5021441;28;20108;-67
2024/02/26 01:52:22;;;;;;;;;;;;;;;-144.99;nan;52656.00;5030863;28;20016;-67
2024/02/26 01:54:48;;;;;;;;;;;;;;;-144.99;nan;52656.00;5017246;28;19973;-74
2024/02/26 01:57:15;;;;;;;;;;;;;;;-144.99;nan;52603.00;5020673;28;19979;-73
2024/02/26 01:59:42;;;;;;;;;;;;;;;-144.99;nan;52627.47;5021180;28;19960;-71
2024/02/26 02:02:09;;;;;;;;;;;;;;;-144.99;nan;52594.84;5032508;28;20027;-66
2024/02/26 02:04:38;;;;;;;;;;;;;;;-144.99;nan;52643.78;5022851;28;19929;-66
2024/02/26 02:07:05;;;;;;;;;;;;;;;-144.99;nan;52647.84;5021039;28;19984;-64
2024/02/26 02:09:32;;;;;;;;;;;;;;;-144.99;nan;52590.78;5024591;28;20331;-63
2024/02/26 02:11:59;;;;;;;;;;;;;;;-144.99;nan;52554.09;5023509;28;19968;-63
2024/02/26 02:14:26;;;;;;;;;;;;;;;-144.99;nan;52651.94;5025454;28;19952;-64
2024/02/26 02:16:52;;;;;;;;;;;;;;;-144.99;nan;52656.00;5021672;28;20050;-64
2024/02/26 02:19:19;;;;;;;;;;;;;;;-144.99;nan;52607.09;5023755;28;19983;-64
2024/02/26 02:21:47;;;;;;;;;;;;;;;-144.99;nan;52590.78;5026219;28;19932;-74
2024/02/26 02:24:13;;;;;;;;;;;;;;;-144.99;nan;52586.69;5028195;28;19935;-73
2024/02/26 02:26:40;;;;;;;;;;;;;;;-144.99;nan;52605.03;5030718;28;19956;-73
2024/02/26 02:29:07;;;;;;;;;;;;;;;-144.99;nan;52574.47;5010360;28;20027;-75
2024/02/26 02:31:34;;;;;;;;;;;;;;;-144.99;nan;52615.25;5029832;28;19926;-73
2024/02/26 02:34:00;;;;;;;;;;;;;;;-144.99;nan;52627.47;4686432;28;10000549;-73
2024/02/26 02:36:27;;;;;;;;;;;;;;;-144.99;nan;52619.31;5049271;28;19952;-73
2024/02/26 02:38:54;;;;;;;;;;;;;;;-144.99;nan;52623.38;5044747;28;20059;-74
2024/02/26 02:41:21;;;;;;;;;;;;;;;-144.99;nan;52582.63;5022216;28;20040;-74
2024/02/26 02:43:48;;;;;;;;;;;;;;;-144.99;nan;52570.38;5030507;28;20233;-76
2024/02/26 02:46:14;;;;;;;;;;;;;;;-144.99;nan;52613.19;5021591;28;19983;-72
2024/02/26 02:48:42;;;;;;;;;;;;;;;-144.99;nan;52619.31;5025702;28;19964;-72
2024/02/26 02:51:10;;;;;;;;;;;;;;;-144.99;nan;52637.66;5028925;28;20449;-72
2024/02/26 02:53:36;;;;;;;;;;;;;;;-144.99;nan;52621.34;5031991;28;20015;-72
2024/02/26 02:56:05;;;;;;;;;;;;;;;-144.99;nan;52607.09;5006601;28;19929;-73
2024/02/26 02:58:31;;;;;;;;;;;;;;;-144.99;nan;52645.81;5028779;28;19937;-74
2024/02/26 03:01:00;;;;;;;;;;;;;;;-144.99;nan;52641.72;5032855;28;19935;-73
2024/02/26 03:03:28;;;;;;;;;;;;;;;-144.99;nan;52643.78;5028347;28;19968;-72
2024/02/26 03:05:54;;;;;;;;;;;;;;;-144.99;nan;52629.50;5023792;28;20389;-73
2024/02/26 03:08:21;;;;;;;;;;;;;;;-144.99;nan;52619.31;5032819;28;20011;-67
2024/02/26 03:10:48;;;;;;;;;;;;;;;-144.99;nan;52621.34;5027520;28;19930;-68
2024/02/26 03:13:15;;;;;;;;;;;;;;;-144.99;nan;52672.31;5025504;28;19995;-68
2024/02/26 03:15:42;;;;;;;;;;;;;;;-144.99;nan;52586.69;5024107;28;20340;-69
2024/02/26 03:18:08;;;;;;;;;;;;;;;-144.99;nan;52670.28;5030459;28;20017;-69
2024/02/26 03:20:34;;;;;;;;;;;;;;;-144.99;nan;52637.66;5025839;28;19929;-69
2024/02/26 03:23:00;;;;;;;;;;;;;;;-144.99;nan;52562.25;5026171;28;20690;-65
2024/02/26 03:25:27;;;;;;;;;;;;;;;-144.99;nan;52611.16;5026834;28;19929;-68
2024/02/26 03:27:53;;;;;;;;;;;;;;;-144.99;nan;52617.28;5035635;28;20031;-68
2024/02/26 03:30:21;;;;;;;;;;;;;;;-144.99;nan;52594.84;5026708;28;20028;-68
2024/02/26 03:32:47;;;;;;;;;;;;;;;-144.99;nan;52631.53;5038024;28;19968;-68
2024/02/26 03:35:14;;;;;;;;;;;;;;;-144.99;nan;52621.34;5022635;28;20414;-68
2024/02/26 03:37:41;;;;;;;;;;;;;;;-144.99;nan;52627.47;5022468;28;20458;-63
2024/02/26 03:40:08;;;;;;;;;;;;;;;-144.99;nan;52603.00;5037326;28;19964;-70
2024/02/26 03:42:34;;;;;;;;;;;;;;;-144.99;nan;52615.25;5029088;28;19937;-71
2024/02/26 03:45:01;;;;;;;;;;;;;;;-144.99;nan;52600.97;5031278;28;20096;-68
2024/02/26 03:47:29;;;;;;;;;;;;;;;-144.99;nan;52623.38;5023712;28;19931;-71
2024/02/26 03:49:55;;;;;;;;;;;;;;;-144.99;nan;52631.53;5022402;28;19969;-72
2024/02/26 03:52:21;;;;;;;;;;;;;;;-144.99;nan;52623.38;5029509;28;19972;-71
2024/02/26 03:54:48;;;;;;;;;;;;;;;-144.99;nan;52611.16;5029152;28;20015;-71
2024/02/26 03:57:14;;;;;;;;;;;;;;;-144.99;nan;52613.19;5024408;28;19935;-65
2024/02/26 03:59:41;;;;;;;;;;;;;;;-144.99;nan;52639.69;5022571;28;20032;-63
2024/02/26 04:02:07;;;;;;;;;;;;;;;-144.99;nan;52609.13;5034185;28;20020;-64
2024/02/26 04:04:37;;;;;;;;;;;;;;;-144.99;nan;52594.84;5026076;28;19925;-64
2024/02/26 04:07:03;;;;;;;;;;;;;;;-144.99;nan;52623.38;5022351;28;20051;-64
2024/02/26 04:09:31;;;;;;;;;;;;;;;-144.99;nan;52621.34;5030037;28;19932;-65
2024/02/26 04:11:58;;;;;;;;;;;;;;;-144.99;nan;52647.84;5028722;28;19933;-62
2024/02/26 04:14:24;;;;;;;;;;;;;;;-144.99;nan;52627.47;5025569;28;19975;-62
2024/02/26 04:16:52;;;;;;;;;;;;;;;-144.99;nan;52611.16;5039681;28;20011;-62
2024/02/26 04:19:18;;;;;;;;;;;;;;;-144.99;nan;52643.78;5032110;28;20410;-71
2024/02/26 04:21:46;;;;;;;;;;;;;;;-144.99;nan;52605.03;5024486;28;19996;-71
2024/02/26 04:24:13;;;;;;;;;;;;;;;-144.99;nan;52643.78;5029807;28;20457;-70
2024/02/26 04:26:39;;;;;;;;;;;;;;;-144.99;nan;52598.94;5027947;28;20032;-69
2024/02/26 04:29:05;;;;;;;;;;;;;;;-144.99;nan;52615.25;5025463;28;20012;-71
2024/02/26 04:31:32;;;;;;;;;;;;;;;-144.99;nan;52603.00;5027717;28;19972;-71
2024/02/26 04:33:59;;;;;;;;;;;;;;;-144.99;nan;52598.94;5022799;28;19965;-70
2024/02/26 04:36:25;;;;;;;;;;;;;;;-144.99;nan;52656.00;5033151;28;19925;-70
2024/02/26 04:38:54;;;;;;;;;;;;;;;-144.99;nan;52611.16;5030118;28;19933;-64
2024/02/26 04:41:21;;;;;;;;;;;;;;;-144.99;nan;52588.75;5026909;28;20342;-64
2024/02/26 04:43:49;;;;;;;;;;;;;;;-144.99;nan;52611.16;5023967;28;20181;-63
2024/02/26 04:46:15;;;;;;;;;;;;;;;-144.99;nan;52643.78;5017975;28;19976;-63
2024/02/26 04:48:42;;;;;;;;;;;;;;;-144.99;nan;52623.38;5020384;28;19951;-63
2024/02/26 04:51:09;;;;;;;;;;;;;;;-144.99;nan;52623.38;5024149;28;19925;-63
2024/02/26 04:53:35;;;;;;;;;;;;;;;-144.99;nan;52611.16;5033084;28;20213;-63
2024/02/26 04:56:03;;;;;;;;;;;;;;;-144.99;nan;52619.31;5028209;28;20294;-64
2024/02/26 04:58:29;;;;;;;;;;;;;;;-144.99;nan;52627.47;5028339;28;20005;-65
2024/02/26 05:00:56;;;;;;;;;;;;;;;-144.99;nan;52635.63;5025859;28;19977;-64
2024/02/26 05:03:23;;;;;;;;;;;;;;;-144.99;nan;52621.34;5027548;28;19925;-64
2024/02/26 05:05:49;;;;;;;;;;;;;;;-144.99;nan;52631.53;5029247;28;19975;-64
2024/02/26 05:08:16;;;;;;;;;;;;;;;-144.99;nan;52586.69;5033329;28;20252;-64
2024/02/26 05:10:43;;;;;;;;;;;;;;;-144.99;nan;52598.94;5031893;28;20395;-65
2024/02/26 05:13:11;;;;;;;;;;;;;;;-144.99;nan;52623.38;5028553;28;19925;-65
2024/02/26 05:15:37;;;;;;;;;;;;;;;-144.99;nan;52635.63;5023088;28;20036;-64
2024/02/26 05:18:04;;;;;;;;;;;;;;;-144.99;nan;52609.13;5022767;28;19960;-64
2024/02/26 05:20:31;;;;;;;;;;;;;;;-144.99;nan;52572.44;5032744;28;19929;-64
2024/02/26 05:22:58;;;;;;;;;;;;;;;-144.99;nan;52619.31;5027029;28;19952;-65
2024/02/26 05:25:25;;;;;;;;;;;;;;;-144.99;nan;52660.09;5025179;28;19933;-64
2024/02/26 05:27:51;;;;;;;;;;;;;;;-144.99;nan;52619.31;5019930;28;20004;-64
2024/02/26 05:30:19;;;;;;;;;;;;;;;-144.99;nan;52607.09;5033066;28;19979;-71
2024/02/26 05:32:46;;;;;;;;;;;;;;;-144.99;nan;52619.31;5026378;28;19979;-68
2024/02/26 05:35:12;;;;;;;;;;;;;;;-144.99;nan;52594.84;5019677;28;20351;-68
2024/02/26 05:37:38;;;;;;;;;;;;;;;-144.99;nan;52623.38;5026399;28;19933;-68
2024/02/26 05:40:06;;;;;;;;;;;;;;;-144.99;nan;52603.00;5026978;28;19968;-68
2024/02/26 05:42:33;;;;;;;;;;;;;;;-144.99;nan;52590.78;5020252;28;20036;-68
2024/02/26 05:45:04;;;;;;;;;;;;;;;-144.99;nan;52623.38;5024573;28;19968;-69
2024/02/26 05:47:32;;;;;;;;;;;;;;;-144.99;nan;52627.47;5028657;28;20138;-70
2024/02/26 05:50:00;;;;;;;;;;;;;;;-144.99;nan;52611.16;5026920;28;20281;-70
2024/02/26 05:52:27;;;;;;;;;;;;;;;-144.99;nan;52613.19;5025349;28;19990;-71
2024/02/26 05:54:53;;;;;;;;;;;;;;;-144.99;nan;52627.47;5026515;28;20051;-70
2024/02/26 05:57:19;;;;;;;;;;;;;;;-144.99;nan;52605.03;5026528;28;19961;-70
2024/02/26 05:59:46;;;;;;;;;;;;;;;-144.99;nan;52617.28;5031161;28;20391;-70
2024/02/26 06:02:12;;;;;;;;;;;;;;;-144.99;nan;52619.31;5032978;28;20360;-70
2024/02/26 06:04:40;;;;;;;;;;;;;;;-144.99;nan;52600.97;5028280;28;19931;-73
2024/02/26 06:07:07;;;;;;;;;;;;;;;-144.99;nan;52607.09;5029168;28;19971;-71
2024/02/26 06:09:33;;;;;;;;;;;;;;;-144.99;nan;52598.94;5027250;28;19998;-71
2024/02/26 06:11:59;;;;;;;;;;;;;;;-144.99;nan;52623.38;5028658;28;19925;-74
2024/02/26 06:14:26;;;;;;;;;;;;;;;-144.99;nan;52643.78;5033579;28;19964;-74
2024/02/26 06:16:52;;;;;;;;;;;;;;;-144.99;nan;52631.53;5022608;28;20024;-76
2024/02/26 06:19:19;;;;;;;;;;;;;;;-144.99;nan;52656.00;5030328;28;20330;-65
2024/02/26 06:21:47;;;;;;;;;;;;;;;-144.99;nan;52631.53;5031364;28;19967;-75
2024/02/26 06:24:13;;;;;;;;;;;;;;;-144.99;nan;52627.47;5030165;28;19929;-65
2024/02/26 06:26:40;;;;;;;;;;;;;;;-144.99;nan;52611.16;5022467;28;19933;-65
2024/02/26 06:29:06;;;;;;;;;;;;;;;-144.99;nan;52609.13;5028498;28;19959;-65
2024/02/26 06:31:33;;;;;;;;;;;;;;;-144.99;nan;52637.66;5023731;28;19929;-65
2024/02/26 06:33:59;;;;;;;;;;;;;;;-144.99;nan;52639.69;5022396;28;19983;-66
2024/02/26 06:36:26;;;;;;;;;;;;;;;-144.99;nan;52631.53;5031017;28;20044;-66
2024/02/26 06:38:54;;;;;;;;;;;;;;;-144.99;nan;52607.09;5027484;28;19932;-66
2024/02/26 06:41:21;;;;;;;;;;;;;;;-144.99;nan;52643.78;5022039;28;19925;-67
2024/02/26 06:43:47;;;;;;;;;;;;;;;-144.99;nan;52607.09;5026990;28;20081;-65
2024/02/26 06:46:14;;;;;;;;;;;;;;;-144.99;nan;52619.31;5024382;28;20359;-65
2024/02/26 06:48:40;;;;;;;;;;;;;;;-144.99;nan;52643.78;5027589;28;19929;-65
2024/02/26 06:51:07;;;;;;;;;;;;;;;-144.99;nan;52627.47;5030396;28;19926;-65
2024/02/26 06:53:33;;;;;;;;;;;;;;;-144.99;nan;52631.53;5029861;28;19985;-65
2024/02/26 06:56:01;;;;;;;;;;;;;;;-144.99;nan;52600.97;5029862;28;19925;-70
2024/02/26 06:58:28;;;;;;;;;;;;;;;-144.99;nan;52635.63;5026690;28;20358;-70
2024/02/26 07:00:54;;;;;;;;;;;;;;;-144.99;nan;52619.31;5026178;28;20000;-70
2024/02/26 07:03:22;;;;;;;;;;;;;;;-144.99;nan;52623.38;5025729;28;19972;-70
2024/02/26 07:05:48;;;;;;;;;;;;;;;-144.99;nan;52627.47;5017161;28;19925;-70
2024/02/26 07:08:15;;;;;;;;;;;;;;;-144.99;nan;52619.31;5023815;28;19960;-70
2024/02/26 07:10:41;;;;;;;;;;;;;;;-144.99;nan;52647.84;5021800;28;19943;-70
2024/02/26 07:13:09;;;;;;;;;;;;;;;-144.99;nan;52582.63;5023806;28;19968;-70
2024/02/26 07:15:36;;;;;;;;;;;;;;;-144.99;nan;52590.78;5025896;28;19936;-71
2024/02/26 07:18:03;;;;;;;;;;;;;;;-144.99;nan;52631.53;5023822;28;19995;-70
2024/02/26 07:20:29;;;;;;;;;;;;;;;-144.99;nan;52627.47;5029182;28;19929;-69
2024/02/26 07:22:56;;;;;;;;;;;;;;;-144.99;nan;52627.47;5027802;28;19933;-70
2024/02/26 07:25:24;;;;;;;;;;;;;;;-144.99;nan;52586.69;5026997;28;20422;-69
2024/02/26 07:27:50;;;;;;;;;;;;;;;-144.99;nan;52611.16;5028810;28;20019;-72
2024/02/26 07:30:18;;;;;;;;;;;;;;;-144.99;nan;52590.78;5024466;28;20375;-72
2024/02/26 07:32:45;;;;;;;;;;;;;;;-144.99;nan;52611.16;5027664;28;20039;-72
2024/02/26 07:35:11;;;;;;;;;;;;;;;-144.99;nan;52598.94;5023241;28;19941;-71
2024/02/26 07:37:38;;;;;;;;;;;;;;;-144.99;nan;52582.63;5027639;28;19964;-71
2024/02/26 07:40:08;;;;;;;;;;;;;;;-144.99;nan;52590.78;5025250;28;20004;-69
2024/02/26 07:42:34;;;;;;;;;;;;;;;-144.99;nan;52596.88;5022350;28;19933;-70
2024/02/26 07:45:01;;;;;;;;;;;;;;;-144.99;nan;52596.88;4331429;28;10000754;-69
2024/02/26 07:47:29;;;;;;;;;;;;;;;-144.99;nan;52635.63;5016039;28;19952;-69
2024/02/26 07:49:56;;;;;;;;;;;;;;;-144.99;nan;52619.31;5016275;28;19941;-69
2024/02/26 07:52:22;;;;;;;;;;;;;;;-144.99;nan;52603.00;5025435;28;20370;-69
2024/02/26 07:54:49;;;;;;;;;;;;;;;-144.99;nan;52600.97;5026421;28;19987;-70
2024/02/26 07:57:17;;;;;;;;;;;;;;;-144.99;nan;52590.78;5021705;28;20054;-70
2024/02/26 07:59:44;;;;;;;;;;;;;;;-144.99;nan;52603.00;5019622;28;20276;-69
2024/02/26 08:02:11;;;;;;;;;;;;;;;-144.99;nan;52578.53;5020995;28;19932;-69
2024/02/26 08:04:39;;;;;;;;;;;;;;;-144.99;nan;52631.53;5012007;28;20395;-69
2024/02/26 08:07:05;;;;;;;;;;;;;;;-144.99;nan;52621.34;5021829;28;20304;-69
2024/02/26 08:09:32;;;;;;;;;;;;;;;-144.99;nan;52596.88;5021275;28;20699;-69
2024/02/26 08:11:58;;;;;;;;;;;;;;;-144.99;nan;52598.94;5020023;28;20426;-69
2024/02/26 08:14:24;;;;;;;;;;;;;;;-144.99;nan;52564.28;5023554;28;20020;-69
2024/02/26 08:16:51;;;;;;;;;;;;;;;-144.99;nan;52586.69;5016509;28;19983;-69
2024/02/26 08:19:17;;;;;;;;;;;;;;;-144.99;nan;52611.16;5021068;28;19964;-69
2024/02/26 08:21:45;;;;;;;;;;;;;;;-144.99;nan;52615.25;5009735;28;19936;-70
2024/02/26 08:24:12;;;;;;;;;;;;;;;-144.99;nan;52586.69;5015521;28;20431;-69
2024/02/26 08:26:38;;;;;;;;;;;;;;;-144.99;nan;52621.34;5019726;28;19941;-69
2024/02/26 08:29:04;;;;;;;;;;;;;;;-144.99;nan;52554.09;5017767;28;20283;-68
2024/02/26 08:31:31;;;;;;;;;;;;;;;-144.99;nan;52607.09;5018475;28;20403;-70
2024/02/26 08:33:58;;;;;;;;;;;;;;;-144.99;nan;52582.63;5006194;28;19929;-69
2024/02/26 08:36:24;;;;;;;;;;;;;;;-144.99;nan;52594.84;5018734;28;19928;-69
2024/02/26 08:38:52;;;;;;;;;;;;;;;-144.99;nan;52576.50;5013677;28;20016;-68
2024/02/26 08:41:18;;;;;;;;;;;;;;;-144.99;nan;52586.69;5019305;28;20441;-68
2024/02/26 08:43:45;;;;;;;;;;;;;;;-144.99;nan;52586.69;5016649;28;19929;-69
2024/02/26 08:46:13;;;;;;;;;;;;;;;-144.99;nan;52582.63;5022239;28;19925;-70
2024/02/26 08:48:39;;;;;;;;;;;;;;;-144.99;nan;52598.94;5018391;28;20016;-69
2024/02/26 08:51:07;;;;;;;;;;;;;;;-144.99;nan;52566.31;5018664;28;20420;-68
2024/02/26 08:53:33;;;;;;;;;;;;;;;-144.99;nan;52590.78;5016839;28;19936;-69
2024/02/26 08:56:01;;;;;;;;;;;;;;;-144.99;nan;52568.34;5025606;28;19990;-69
2024/02/26 08:58:28;;;;;;;;;;;;;;;-144.99;nan;52578.53;5013813;28;19925;-69
2024/02/26 09:00:54;;;;;;;;;;;;;;;-144.99;nan;52560.19;5015769;28;19935;-69
2024/02/26 09:03:21;;;;;;;;;;;;;;;-144.99;nan;52582.63;5014111;28;20028;-69
2024/02/26 09:05:47;;;;;;;;;;;;;;;-144.99;nan;52592.81;5011527;28;20011;-69
2024/02/26 09:08:14;;;;;;;;;;;;;;;-144.99;nan;52570.38;5024946;28;20379;-69
2024/02/26 09:10:40;;;;;;;;;;;;;;;-144.99;nan;52590.78;5014638;28;20178;-69
2024/02/26 09:13:08;;;;;;;;;;;;;;;-144.99;nan;52556.13;5021113;28;20020;-69
2024/02/26 09:15:34;;;;;;;;;;;;;;;-144.99;nan;52554.09;5024677;28;19979;-69
2024/02/26 09:18:01;;;;;;;;;;;;;;;-144.99;nan;52541.84;5024862;28;20428;-69
2024/02/26 09:20:27;;;;;;;;;;;;;;;-144.99;nan;52582.63;5017847;28;19986;-69
2024/02/26 09:22:54;;;;;;;;;;;;;;;-144.99;nan;52545.94;5017092;28;20518;-69
2024/02/26 09:25:21;;;;;;;;;;;;;;;-144.99;nan;52574.47;5021876;28;19933;-68
2024/02/26 09:27:47;;;;;;;;;;;;;;;-144.99;nan;52533.69;5024026;28;19936;-69
2024/02/26 09:30:15;;;;;;;;;;;;;;;-144.99;nan;52603.00;5023301;28;19944;-69
2024/02/26 09:32:42;;;;;;;;;;;;;;;-144.99;nan;52545.94;5025709;28;19978;-69
2024/02/26 09:35:08;;;;;;;;;;;;;;;-144.99;nan;52582.63;5020951;28;20040;-69
2024/02/26 09:37:36;;;;;;;;;;;;;;;-144.99;nan;52562.25;5038904;28;19979;-69
2024/02/26 09:40:03;;;;;;;;;;;;;;;-144.99;nan;52603.00;5022426;28;19937;-69
2024/02/26 09:42:32;;;;;;;;;;;;;;;-144.99;nan;52562.25;5022255;28;20020;-68
2024/02/26 09:45:01;;;;;;;;;;;;;;;-144.99;nan;52547.97;5018370;28;20395;-69
2024/02/26 09:47:30;;;;;;;;;;;;;;;-144.99;nan;52611.16;5014102;28;19979;-68
2024/02/26 09:49:57;;;;;;;;;;;;;;;-144.99;nan;52586.69;5015480;28;19991;-69
2024/02/26 09:52:24;;;;;;;;;;;;;;;-144.99;nan;52594.84;5020488;28;19984;-69
2024/02/26 09:54:51;;;;;;;;;;;;;;;-144.99;nan;52594.84;5018742;28;20340;-68
2024/02/26 09:57:18;;;;;;;;;;;;;;;-144.99;nan;52590.78;5016074;28;19929;-68
2024/02/26 09:59:45;;;;;;;;;;;;;;;-144.99;nan;52580.59;5018685;28;20020;-68
2024/02/26 10:02:14;;;;;;;;;;;;;;;-144.99;nan;52533.69;5024832;28;20005;-69
2024/02/26 10:04:42;;;;;;;;;;;;;;;-144.99;nan;52582.63;5022521;28;20565;-69
2024/02/26 10:07:10;;;;;;;;;;;;;;;-144.99;nan;52582.63;5033037;28;20427;-69
2024/02/26 10:09:37;;;;;;;;;;;;;;;-144.99;nan;52545.94;5021357;28;20564;-69
2024/02/26 10:12:04;;;;;;;;;;;;;;;-144.99;nan;52552.03;5017214;28;19991;-69
2024/02/26 10:14:31;;;;;;;;;;;;;;;-144.99;nan;52552.03;5022082;28;20251;-69
2024/02/26 10:16:57;;;;;;;;;;;;;;;-144.99;nan;52554.09;5028251;28;20022;-68
2024/02/26 10:19:27;;;;;;;;;;;;;;;-144.99;nan;52586.69;5024480;28;19990;-68
2024/02/26 10:21:57;;;;;;;;;;;;;;;-144.99;nan;52554.09;5037166;28;19972;-68
2024/02/26 10:24:23;;;;;;;;;;;;;;;-144.99;nan;52582.63;5023563;28;20008;-67
2024/02/26 10:26:50;;;;;;;;;;;;;;;-144.99;nan;52570.38;5026363;28;20483;-69
2024/02/26 10:29:17;;;;;;;;;;;;;;;-144.99;nan;52554.09;5027871;28;19957;-69
2024/02/26 10:31:43;;;;;;;;;;;;;;;-144.99;nan;52541.84;5029183;28;19968;-69
2024/02/26 10:34:10;;;;;;;;;;;;;;;-144.99;nan;52527.59;5028101;28;20016;-69
2024/02/26 10:36:36;;;;;;;;;;;;;;;-144.99;nan;52550.00;5024686;28;19960;-69
2024/02/26 10:39:05;;;;;;;;;;;;;;;-144.99;nan;52558.16;5038197;28;20377;-69
2024/02/26 10:41:33;;;;;;;;;;;;;;;-144.99;nan;52545.94;5030969;28;19984;-69
2024/02/26 10:44:00;;;;;;;;;;;;;;;-144.99;nan;52537.78;5029710;28;20364;-69
2024/02/26 10:46:26;;;;;;;;;;;;;;;-144.99;nan;52562.25;5006769;28;20107;-69
2024/02/26 10:48:53;;;;;;;;;;;;;;;-144.99;nan;52545.94;5020183;28;20035;-69
2024/02/26 10:51:20;;;;;;;;;;;;;;;-144.99;nan;52582.63;5027800;28;19982;-69
2024/02/26 10:53:48;;;;;;;;;;;;;;;-144.99;nan;52521.47;5035582;28;20059;-69
2024/02/26 10:56:17;;;;;;;;;;;;;;;-144.99;nan;52570.38;5027980;28;20338;-69
2024/02/26 10:58:44;;;;;;;;;;;;;;;-144.99;nan;52525.56;5020592;28;19997;-69
2024/02/26 11:01:11;;;;;;;;;;;;;;;-144.99;nan;52541.84;5028827;28;19968;-69
2024/02/26 11:03:39;;;;;;;;;;;;;;;-144.99;nan;52570.38;5034065;28;20137;-69
2024/02/26 11:06:06;;;;;;;;;;;;;;;-144.99;nan;52529.63;5031139;28;19925;-69
2024/02/26 11:08:33;;;;;;;;;;;;;;;-144.99;nan;52501.09;5001979;28;20467;-70
2024/02/26 11:11:00;;;;;;;;;;;;;;;-144.99;nan;52578.53;5022934;28;20028;-70
2024/02/26 11:13:30;;;;;;;;;;;;;;;-144.99;nan;52537.78;5018799;28;20374;-70
2024/02/26 11:15:58;;;;;;;;;;;;;;;-144.99;nan;52545.94;5024296;28;20258;-69
2024/02/26 11:18:24;;;;;;;;;;;;;;;-144.99;nan;52519.44;5019103;28;19925;-69
2024/02/26 11:20:52;;;;;;;;;;;;;;;-144.99;nan;52545.94;5021073;28;20133;-69
2024/02/26 11:23:18;;;;;;;;;;;;;;;-144.99;nan;52525.56;5025748;28;20008;-70
2024/02/26 11:25:45;;;;;;;;;;;;;;;-144.99;nan;52545.94;5021143;28;19971;-69
2024/02/26 11:28:13;;;;;;;;;;;;;;;-144.99;nan;52521.47;5033100;28;20079;-70
2024/02/26 11:30:48;;;;;;;;;;;;;;;-144.99;nan;52509.25;5022127;28;20127;-70
2024/02/26 11:33:15;;;;;;;;;;;;;;;-144.99;nan;52509.25;5024092;28;20379;-70
2024/02/26 11:35:42;;;;;;;;;;;;;;;-144.99;nan;52488.84;5034707;28;19964;-70
2024/02/26 11:38:08;;;;;;;;;;;;;;;-144.99;nan;52560.19;5027873;28;20023;-70
2024/02/26 11:40:39;;;;;;;;;;;;;;;-144.99;nan;52537.78;5021273;28;20187;-70
2024/02/26 11:43:06;;;;;;;;;;;;;;;-144.99;nan;52541.84;5025032;28;19936;-70
2024/02/26 11:45:51;;;;;;;;;;;;;;;-144.99;nan;52521.47;5022649;28;20044;-70
2024/02/26 11:48:22;;;;;;;;;;;;;;;-144.99;nan;52521.47;5025075;28;19932;-70
2024/02/26 11:50:49;;;;;;;;;;;;;;;-144.99;nan;52513.31;5025372;28;19929;-70
2024/02/26 11:53:23;;;;;;;;;;;;;;;-144.99;nan;52509.25;5014867;28;20007;-70
2024/02/26 11:55:50;;;;;;;;;;;;;;;-144.99;nan;52523.50;5028736;28;20015;-70
2024/02/26 11:58:16;;;;;;;;;;;;;;;-144.99;nan;52488.84;5023889;28;19931;-69
2024/02/26 12:00:43;;;;;;;;;;;;;;;-144.99;nan;52558.16;5023660;28;19999;-69
2024/02/26 12:03:12;;;;;;;;;;;;;;;-144.99;nan;52509.25;5024890;28;19961;-69
2024/02/26 12:05:39;;;;;;;;;;;;;;;-144.99;nan;52533.69;5019426;28;19995;-69
2024/02/26 12:08:07;;;;;;;;;;;;;;;-144.99;nan;52507.19;5021759;28;20449;-69
2024/02/26 12:10:35;;;;;;;;;;;;;;;-144.99;nan;52509.25;5027207;28;19952;-69
2024/02/26 12:13:04;;;;;;;;;;;;;;;-144.99;nan;52480.72;5015283;28;20003;-69
2024/02/26 12:15:34;;;;;;;;;;;;;;;-144.99;nan;52558.16;5021376;28;20203;-69
2024/02/26 12:18:02;;;;;;;;;;;;;;;-144.99;nan;52533.69;5016788;28;20036;-70
2024/02/26 12:20:28;;;;;;;;;;;;;;;-144.99;nan;52558.16;5019742;28;19937;-70
2024/02/26 12:22:56;;;;;;;;;;;;;;;-144.99;nan;52525.56;5030765;28;19956;-70
2024/02/26 12:25:24;;;;;;;;;;;;;;;-144.99;nan;52554.09;5021533;28;19963;-70
2024/02/26 12:27:51;;;;;;;;;;;;;;;-144.99;nan;52537.78;5023699;28;20006;-69
2024/02/26 12:30:18;;;;;;;;;;;;;;;-144.99;nan;52539.81;5024424;28;20090;-69
2024/02/26 12:32:45;;;;;;;;;;;;;;;-144.99;nan;52570.38;5022331;28;20346;-70
2024/02/26 12:35:12;;;;;;;;;;;;;;;-144.99;nan;52541.84;5025403;28;19965;-70
2024/02/26 12:37:39;;;;;;;;;;;;;;;-144.99;nan;52501.09;5029027;28;20310;-70
2024/02/26 12:40:09;;;;;;;;;;;;;;;-144.99;nan;52558.16;5024810;28;20306;-70
2024/02/26 12:42:39;;;;;;;;;;;;;;;-144.99;nan;52578.53;5023934;28;19933;-70
2024/02/26 12:45:09;;;;;;;;;;;;;;;-144.99;nan;52554.09;5025460;28;20060;-70